Hanalei, Hawaii
Current Conditions -  °F | °C
As of 4:53 PM on Monday 26 Jan 2015 (Local Time) from PHLI Reporting Station
Overcast Overcast  
Wind Chill: 75°   Ceiling: 4600
Heat Index: 75°   Visibility: 10mi
Dew Point: 60°   Wind: 14mph
Humidity: 60%   Direction: 60°ENE
Pressure: 29.95"   Gusts: NA
Location:  22.2°N, 159.49°W
Report Text: PHLI 270253Z 06012KT 10SM FEW018 OVC046 24/16 A2995 RMK AO2 SLP140 60000 T02390156 56005
Loading
Personal Weather Stations






























Interactive Weather Map New forecast layout! Learn more

10-Day Weather Forecast

Advertisements
Track Severe Weather on mobile